Time;durP1;ratioP1;P1;durP2;ratioP2;P2;SDS_P1;SDS_P2;PMS_P1;PMS_P2;Temp;Humidity;BMP_temperature;BMP_pressure;BME280_temperature;BME280_humidity;BME280_pressure;Samples;Min_cycle;Max_cycle;Signal;HPM_P1;HPM_P2
2023/07/24 00:00:23;;;;;;;7.75;4.22;;;;;;;;;;6159511;23;20020;-87
2023/07/24 00:02:49;;;;;;;8.07;5.07;;;;;;;;;;6159276;23;20080;-85
2023/07/24 00:05:15;;;;;;;9.45;5.45;;;;;;;;;;6159568;23;20071;-85
2023/07/24 00:07:41;;;;;;;9.77;5.40;;;;;;;;;;6184364;23;20028;-85
2023/07/24 00:10:07;;;;;;;4.82;3.67;;;17.60;82.50;;;;;;6159522;23;20028;-87
2023/07/24 00:12:33;;;;;;;5.38;3.83;;;;;;;;;;6159433;23;20017;-86
2023/07/24 00:14:59;;;;;;;5.85;4.43;;;;;;;;;;6184100;23;20068;-84
2023/07/24 00:17:25;;;;;;;8.60;4.75;;;;;;;;;;6184423;23;20019;-86
2023/07/24 00:19:52;;;;;;;9.88;4.53;;;;;;;;;;6158775;23;20100;-84
2023/07/24 00:22:21;;;;;;;9.75;4.35;;;;;;;;;;6159368;23;20545;-87
2023/07/24 00:24:50;;;;;;;6.80;4.55;;;;;;;;;;6184255;23;20327;-85
2023/07/24 00:27:16;;;;;;;10.25;4.70;;;;;;;;;;6158899;23;20540;-87
2023/07/24 00:29:42;;;;;;;9.02;4.68;;;;;;;;;;6158766;23;20389;-87
2023/07/24 00:32:08;;;;;;;8.85;4.60;;;;;;;;;;6134568;23;20025;-86
2023/07/24 00:34:34;;;;;;;8.98;5.03;;;;;;;;;;6158143;23;20017;-85
2023/07/24 00:37:00;;;;;;;6.47;4.68;;;;;;;;;;6158912;23;20453;-84
2023/07/24 00:39:28;;;;;;;14.40;6.40;;;;;;;;;;6134175;23;20028;-86
2023/07/24 00:41:54;;;;;;;9.98;4.85;;;;;;;;;;6158730;23;20017;-86
2023/07/24 00:44:20;;;;;;;12.27;4.60;;;;;;;;;;6158650;23;20439;-85
2023/07/24 00:46:46;;;;;;;7.40;5.15;;;;;;;;;;6134626;23;20070;-85
2023/07/24 00:49:13;;;;;;;8.63;4.72;;;;;;;;;;6133767;23;20017;-85
2023/07/24 00:51:39;;;;;;;9.95;5.07;;;;;;;;;;6158778;23;20056;-86
2023/07/24 00:54:06;;;;;;;9.48;4.72;;;17.50;89.00;;;;;;6183365;23;20107;-86
2023/07/24 00:56:33;;;;;;;7.72;4.57;;;;;;;;;;6158930;23;20021;-86
2023/07/24 00:58:59;;;;;;;12.23;5.47;;;;;;;;;;6158609;23;20017;-87
2023/07/24 01:01:25;;;;;;;11.25;4.57;;;;;;;;;;6158929;23;20017;-87
2023/07/24 01:03:52;;;;;;;12.05;5.30;;;17.40;88.70;;;;;;6158631;23;20020;-86
2023/07/24 01:06:18;;;;;;;13.88;5.90;;;;;;;;;;6183658;23;20481;-86
2023/07/24 01:08:45;;;;;;;15.02;5.85;;;;;;;;;;6185573;23;20017;-86
2023/07/24 01:11:21;;;;;;;8.82;5.93;;;;;;;;;;6182994;23;20017;-86
2023/07/24 01:14:02;;;;;;;8.85;5.20;;;17.50;90.20;;;;;;6134004;23;20032;-86
2023/07/24 01:16:35;;;;;;;19.38;5.80;;;17.30;89.90;;;;;;6183845;23;20013;-86
2023/07/24 01:19:03;;;;;;;;;;;17.30;90.60;;;;;;6184047;23;20450;-86
2023/07/24 01:21:45;;;;;;;10.57;5.05;;;17.30;89.50;;;;;;6158450;23;19923;-87
2023/07/24 01:24:43;;;;;;;8.63;4.85;;;17.30;90.40;;;;;;6158458;23;20017;-86
2023/07/24 01:27:09;;;;;;;6.93;5.07;;;;;;;;;;6158023;23;20485;-87
2023/07/24 01:29:35;;;;;;;14.55;5.45;;;;;;;;;;6183380;23;20088;-88
2023/07/24 01:32:02;;;;;;;11.10;5.20;;;;;;;;;;6134331;23;20042;-88
2023/07/24 01:34:28;;;;;;;13.13;5.63;;;;;;;;;;6183350;23;20144;-86
2023/07/24 01:36:54;;;;;;;12.60;6.05;;;;;;;;;;6133908;23;20052;-86
2023/07/24 01:39:21;;;;;;;9.68;5.97;;;17.40;90.50;;;;;;6158609;23;20023;-86
2023/07/24 01:41:47;;;;;;;11.30;4.72;;;;;;;;;;6133721;23;20029;-87
2023/07/24 01:44:16;;;;;;;12.25;5.78;;;;;;;;;;6158704;23;20393;-86
2023/07/24 01:46:42;;;;;;;9.02;5.55;;;;;;;;;;6158411;23;20017;-86
2023/07/24 01:49:08;;;;;;;11.35;6.45;;;;;;;;;;6158184;23;20027;-86
2023/07/24 01:51:34;;;;;;;10.23;5.72;;;;;;;;;;6158169;23;20484;-85
2023/07/24 01:54:00;;;;;;;10.00;5.70;;;;;;;;;;6133705;23;20025;-86
2023/07/24 01:56:26;;;;;;;14.68;5.95;;;;;;;;;;6158337;23;20027;-87
2023/07/24 01:58:52;;;;;;;10.63;6.60;;;;;;;;;;6158414;23;20028;-87
2023/07/24 02:01:18;;;;;;;9.95;6.65;;;;;;;;;;6183072;23;20100;-88
2023/07/24 02:03:44;;;;;;;10.32;6.22;;;;;;;;;;6158104;23;20465;-87
2023/07/24 02:06:10;;;;;;;10.32;7.22;;;;;;;;;;6158108;23;20429;-85
2023/07/24 02:08:36;;;;;;;10.15;6.88;;;;;;;;;;6158550;23;20017;-88
2023/07/24 02:11:02;;;;;;;12.13;6.75;;;17.20;93.60;;;;;;6133661;23;20017;-87
2023/07/24 02:13:28;;;;;;;8.15;6.32;;;;;;;;;;6133239;23;20024;-87
2023/07/24 02:15:54;;;;;;;12.82;7.20;;;;;;;;;;6158043;23;20324;-86
2023/07/24 02:18:20;;;;;;;13.77;7.60;;;;;;;;;;6158575;23;20438;-87
2023/07/24 02:20:50;;;;;;;11.98;8.32;;;;;;;;;;6157787;23;20013;-86
2023/07/24 02:23:16;;;;;;;14.40;7.65;;;;;;;;;;6133726;23;20070;-87
2023/07/24 02:25:42;;;;;;;12.57;8.05;;;;;;;;;;6183379;23;20032;-87
2023/07/24 02:28:09;;;;;;;11.82;7.38;;;;;;;;;;6133686;23;20027;-89
2023/07/24 02:30:39;;;;;;;13.10;8.18;;;17.00;93.20;;;;;;6158038;23;20035;-88
2023/07/24 02:33:05;;;;;;;17.23;8.63;;;;;;;;;;6158142;23;20021;-85
2023/07/24 02:35:31;;;;;;;13.90;8.02;;;;;;;;;;6184969;23;20017;-86
2023/07/24 02:37:57;;;;;;;15.82;7.60;;;16.80;94.90;;;;;;6184385;23;20092;-88
2023/07/24 02:40:23;;;;;;;11.43;8.02;;;;;;;;;;6184142;23;20454;-86
2023/07/24 02:42:49;;;;;;;11.55;7.82;;;;;;;;;;6182596;23;20578;-86
2023/07/24 02:45:15;;;;;;;16.15;9.10;;;;;;;;;;6158075;23;20017;-86
2023/07/24 02:47:42;;;;;;;13.27;8.43;;;;;;;;;;6184828;23;20013;-88
2023/07/24 02:50:08;;;;;;;13.63;8.68;;;;;;;;;;6184329;23;20024;-87
2023/07/24 02:52:34;;;;;;;18.08;8.98;;;;;;;;;;6157782;23;20342;-86
2023/07/24 02:55:00;;;;;;;14.75;9.13;;;;;;;;;;6157722;23;20470;-87
2023/07/24 02:57:26;;;;;;;14.63;8.90;;;;;;;;;;6157997;23;20524;-89
2023/07/24 02:59:52;;;;;;;15.65;9.35;;;;;;;;;;6182687;23;20013;-86
2023/07/24 03:02:18;;;;;;;13.57;8.98;;;;;;;;;;6157801;23;20017;-87
2023/07/24 03:04:44;;;;;;;12.60;8.82;;;16.60;96.10;;;;;;6182735;23;20032;-85
2023/07/24 03:07:10;;;;;;;14.27;8.27;;;;;;;;;;6133154;23;20013;-87
2023/07/24 03:09:36;;;;;;;12.77;8.13;;;;;;;;;;6182631;23;20379;-87
2023/07/24 03:12:02;;;;;;;13.52;8.45;;;16.90;96.30;;;;;;6157752;23;20052;-87
2023/07/24 03:14:28;;;;;;;15.82;9.00;;;;;;;;;;6133167;23;20017;-88
2023/07/24 03:16:54;;;;;;;15.05;8.98;;;;;;;;;;6157777;23;20025;-87
2023/07/24 03:19:20;;;;;;;11.68;8.82;;;;;;;;;;6157110;23;20017;-87
2023/07/24 03:21:46;;;;;;;16.30;8.68;;;;;;;;;;6182638;23;20048;-85
2023/07/24 03:24:12;;;;;;;17.33;8.68;;;;;;;;;;6133906;23;20027;-85
2023/07/24 03:26:39;;;;;;;10.88;7.55;;;;;;;;;;6159685;23;20056;-87
2023/07/24 03:29:05;;;;;;;12.10;7.78;;;17.00;94.50;;;;;;6184527;23;20021;-86
2023/07/24 03:31:31;;;;;;;11.35;8.00;;;;;;;;;;6159570;23;20139;-86
2023/07/24 03:33:57;;;;;;;9.02;7.65;;;;;;;;;;6159990;23;20032;-88
2023/07/24 03:36:23;;;;;;;13.15;8.13;;;;;;;;;;6159384;23;20406;-87
2023/07/24 03:38:49;;;;;;;15.15;8.38;;;;;;;;;;6159458;23;20403;-87
2023/07/24 03:41:15;;;;;;;15.75;8.13;;;;;;;;;;6159455;23;20013;-85
2023/07/24 03:43:41;;;;;;;14.95;8.10;;;;;;;;;;6159581;23;20418;-85
2023/07/24 03:46:08;;;;;;;11.23;8.23;;;16.90;94.70;;;;;;6184355;23;20024;-87
2023/07/24 03:48:36;;;;;;;14.38;7.32;;;;;;;;;;6159563;23;20052;-85
2023/07/24 03:51:03;;;;;;;12.90;8.35;;;;;;;;;;6184043;23;20024;-87
2023/07/24 03:53:29;;;;;;;12.40;7.55;;;;;;;;;;6184504;23;20017;-85
2023/07/24 03:55:55;;;;;;;18.67;7.43;;;;;;;;;;6184005;23;20016;-86
2023/07/24 03:58:21;;;;;;;12.50;8.05;;;;;;;;;;6159426;23;20072;-84
2023/07/24 04:00:47;;;;;;;13.05;7.85;;;;;;;;;;6134826;23;20053;-85
2023/07/24 04:03:14;;;;;;;7.72;6.78;;;;;;;;;;6134694;23;20021;-87
2023/07/24 04:05:40;;;;;;;12.60;7.55;;;;;;;;;;6159367;23;20177;-87
2023/07/24 04:08:06;;;;;;;10.65;7.20;;;;;;;;;;6134887;23;20095;-88
2023/07/24 04:10:32;;;;;;;15.50;8.88;;;;;;;;;;6184191;23;20021;-87
2023/07/24 04:12:58;;;;;;;11.20;7.82;;;;;;;;;;6184163;23;20040;-88
2023/07/24 04:15:23;;;;;;;14.80;8.07;;;17.00;96.20;;;;;;6159576;23;20017;-87
2023/07/24 04:17:50;;;;;;;12.15;6.90;;;;;;;;;;6159341;23;20071;-88
2023/07/24 04:20:16;;;;;;;10.63;6.95;;;;;;;;;;6183670;23;20171;-87
2023/07/24 04:22:42;;;;;;;13.43;7.55;;;;;;;;;;6159141;23;20021;-87
2023/07/24 04:25:08;;;;;;;12.40;6.70;;;17.20;95.90;;;;;;6134482;23;20385;-87
2023/07/24 04:27:34;;;;;;;11.88;6.35;;;17.00;96.00;;;;;;6134862;23;20345;-88
2023/07/24 04:30:00;;;;;;;12.32;6.47;;;;;;;;;;6134675;23;20084;-87
2023/07/24 04:32:29;;;;;;;13.27;6.97;;;;;;;;;;6158985;23;20458;-85
2023/07/24 04:34:55;;;;;;;7.97;5.80;;;;;;;;;;6134605;23;20025;-87
2023/07/24 04:37:21;;;;;;;15.73;6.60;;;;;;;;;;6158594;23;20017;-87
2023/07/24 04:39:49;;;;;;;14.32;6.40;;;17.20;96.00;;;;;;6183424;23;20545;-90
2023/07/24 04:42:15;;;;;;;11.10;6.80;;;;;;;;;;6159969;23;20013;-84
2023/07/24 04:44:41;;;;;;;8.88;6.15;;;;;;;;;;6159059;23;20024;-87
2023/07/24 04:47:07;;;;;;;7.50;6.15;;;;;;;;;;6158580;23;20021;-86
2023/07/24 04:49:34;;;;;;;10.98;6.28;;;;;;;;;;6158749;23;20358;-84
2023/07/24 04:52:00;;;;;;;8.95;6.45;;;;;;;;;;6158942;23;20017;-87
2023/07/24 04:54:26;;;;;;;9.98;7.10;;;;;;;;;;6134485;23;20020;-87
2023/07/24 04:56:52;;;;;;;16.65;8.88;;;;;;;;;;6158811;23;20454;-86
2023/07/24 04:59:18;;;;;;;12.60;7.43;;;;;;;;;;6158970;23;20075;-86
2023/07/24 05:01:44;;;;;;;11.13;7.80;;;;;;;;;;6158919;23;20442;-85
2023/07/24 05:04:10;;;;;;;10.65;7.05;;;;;;;;;;6134508;23;20036;-87
2023/07/24 05:06:38;;;;;;;13.25;7.03;;;;;;;;;;6183726;23;20025;-87
2023/07/24 05:09:04;;;;;;;10.07;7.40;;;;;;;;;;6134809;23;20516;-88
2023/07/24 05:11:30;;;;;;;9.65;8.00;;;;;;;;;;6158866;23;20386;-89
2023/07/24 05:13:56;;;;;;;12.23;8.25;;;;;;;;;;6183313;23;20024;-87
2023/07/24 05:16:22;;;;;;;9.77;7.25;;;;;;;;;;6183456;23;20124;-88
2023/07/24 05:18:48;;;;;;;12.75;9.00;;;;;;;;;;6183253;23;20104;-88
2023/07/24 05:21:14;;;;;;;10.45;8.13;;;;;;;;;;6158606;23;20366;-85
2023/07/24 05:23:40;;;;;;;14.25;7.63;;;;;;;;;;6183258;23;20078;-86
2023/07/24 05:26:06;;;;;;;13.27;8.80;;;;;;;;;;6158777;23;20017;-87
2023/07/24 05:28:33;;;;;;;13.88;7.90;;;;;;;;;;6183347;23;20024;-87
2023/07/24 05:31:03;;;;;;;14.35;8.00;;;17.30;94.40;;;;;;6157926;23;20040;-87
2023/07/24 05:33:30;;;;;;;13.15;9.18;;;;;;;;;;6133952;23;20075;-86
2023/07/24 05:36:03;;;;;;;11.00;7.13;;;17.20;96.90;;;;;;6158483;23;20323;-87
2023/07/24 05:38:29;;;;;;;11.23;8.10;;;;;;;;;;6183020;23;20071;-86
2023/07/24 05:41:00;;;;;;;11.48;8.68;;;17.20;95.30;;;;;;6158360;23;20393;-86
2023/07/24 05:43:26;;;;;;;11.77;8.60;;;;;;;;;;6158452;23;20093;-89
2023/07/24 05:45:53;;;;;;;12.20;8.05;;;;;;;;;;6158516;23;20059;-86
2023/07/24 05:48:19;;;;;;;12.00;8.32;;;;;;;;;;6158219;23;20032;-86
2023/07/24 05:50:45;;;;;;;14.63;8.77;;;17.30;97.10;;;;;;6133982;23;20097;-87
2023/07/24 05:53:11;;;;;;;12.95;8.63;;;;;;;;;;6109257;23;20096;-88
2023/07/24 05:55:37;;;;;;;11.95;7.95;;;;;;;;;;6157789;23;20028;-87
2023/07/24 05:58:03;;;;;;;13.27;8.80;;;17.20;97.20;;;;;;6158211;23;20100;-88
2023/07/24 06:00:29;;;;;;;14.85;8.48;;;;;;;;;;6157839;23;20044;-87
2023/07/24 06:02:55;;;;;;;12.27;8.15;;;;;;;;;;6182878;23;20063;-88
2023/07/24 06:05:21;;;;;;;11.40;9.40;;;;;;;;;;6133881;23;20074;-86
2023/07/24 06:07:47;;;;;;;16.30;9.70;;;;;;;;;;6183073;23;20100;-86
2023/07/24 06:10:13;;;;;;;14.18;8.00;;;17.40;97.40;;;;;;6158083;23;20613;-88
2023/07/24 06:12:40;;;;;;;10.40;7.53;;;;;;;;;;6158308;23;20044;-88
2023/07/24 06:15:06;;;;;;;12.60;8.20;;;;;;;;;;6157787;23;20021;-85
2023/07/24 06:17:32;;;;;;;13.70;8.23;;;;;;;;;;6182970;23;20066;-88
2023/07/24 06:19:58;;;;;;;11.18;8.30;;;;;;;;;;6182647;23;20017;-84
2023/07/24 06:22:24;;;;;;;13.27;8.07;;;;;;;;;;6158147;23;20036;-85
2023/07/24 06:24:50;;;;;;;13.90;8.65;;;;;;;;;;6183172;23;20032;-85
2023/07/24 06:27:17;;;;;;;14.38;8.70;;;;;;;;;;6158061;23;20071;-85
2023/07/24 06:29:43;;;;;;;13.52;8.43;;;;;;;;;;6157905;23;20017;-87
2023/07/24 06:32:09;;;;;;;10.35;8.23;;;;;;;;;;6133768;23;20409;-87
2023/07/24 06:34:35;;;;;;;11.63;8.48;;;;;;;;;;6158026;23;20013;-85
2023/07/24 06:37:01;;;;;;;16.38;9.93;;;;;;;;;;6133477;23;20100;-85
2023/07/24 06:39:28;;;;;;;10.57;8.00;;;;;;;;;;6182617;23;20021;-85
2023/07/24 06:41:55;;;;;;;10.55;8.07;;;17.70;95.80;;;;;;6158260;23;20097;-86
2023/07/24 06:44:21;;;;;;;11.80;8.55;;;;;;;;;;6182612;23;20080;-85
2023/07/24 06:46:47;;;;;;;13.60;8.57;;;;;;;;;;6182596;23;20013;-85
2023/07/24 06:49:13;;;;;;;16.95;8.55;;;;;;;;;;6133623;23;20075;-86
2023/07/24 06:51:39;;;;;;;13.02;8.13;;;17.90;97.70;;;;;;6157371;23;20465;-88
2023/07/24 06:54:05;;;;;;;10.77;7.60;;;17.80;95.60;;;;;;6133218;23;20017;-88
2023/07/24 06:56:31;;;;;;;15.93;8.63;;;;;;;;;;6133178;23;20025;-89
2023/07/24 06:58:58;;;;;;;10.07;7.55;;;;;;;;;;6157912;23;20023;-88
2023/07/24 07:01:24;;;;;;;10.88;7.32;;;17.70;97.20;;;;;;6158077;23;20021;-85
2023/07/24 07:03:50;;;;;;;14.32;8.35;;;;;;;;;;6157613;23;20027;-86
2023/07/24 07:06:16;;;;;;;10.98;7.53;;;;;;;;;;6133594;23;20097;-89
2023/07/24 07:08:42;;;;;;;15.77;8.30;;;;;;;;;;6133265;23;20013;-86
2023/07/24 07:11:08;;;;;;;13.05;8.15;;;;;;;;;;6157737;23;20017;-88
2023/07/24 07:13:35;;;;;;;13.98;8.13;;;;;;;;;;6133323;23;20017;-88
2023/07/24 07:16:01;;;;;;;9.23;7.00;;;;;;;;;;6157931;23;20020;-89
2023/07/24 07:18:26;;;;;;;15.13;7.93;;;18.10;96.60;;;;;;6181279;23;20025;-87
2023/07/24 07:20:53;;;;;;;11.32;8.27;;;18.10;94.90;;;;;;6157240;23;20013;-89
2023/07/24 07:23:20;;;;;;;15.50;8.02;;;;;;;;;;6157663;23;20055;-85
2023/07/24 07:25:46;;;;;;;15.00;9.20;;;18.10;96.30;;;;;;6182026;23;20401;-86
2023/07/24 07:28:13;;;;;;;9.80;7.40;;;18.20;96.20;;;;;;6182513;23;20060;-90
2023/07/24 07:30:39;;;;;;;10.85;7.18;;;;;;;;;;6157888;23;20024;-89
2023/07/24 07:33:05;;;;;;;13.05;7.53;;;;;;;;;;6133409;23;20013;-90
2023/07/24 07:35:35;;;;;;;14.00;7.95;;;18.40;94.40;;;;;;6182513;23;20028;-88
2023/07/24 07:38:01;;;;;;;12.60;7.63;;;;;;;;;;6157674;23;20048;-89
2023/07/24 07:40:30;;;;;;;18.08;8.43;;;18.40;94.40;;;;;;6157522;23;20021;-90
2023/07/24 07:42:56;;;;;;;18.20;8.65;;;18.30;94.30;;;;;;6182548;23;20017;-90
2023/07/24 07:45:23;;;;;;;17.90;8.95;;;18.40;95.60;;;;;;6182600;23;20609;-89
2023/07/24 07:47:53;;;;;;;12.00;6.70;;;;;;;;;;6158297;23;20024;-90
2023/07/24 07:50:19;;;;;;;11.15;6.60;;;;;;;;;;6133360;23;20017;-91
2023/07/24 07:52:46;;;;;;;10.07;8.05;;;;;;;;;;6182375;23;20017;-91
2023/07/24 07:55:13;;;;;;;15.10;8.10;;;18.70;93.50;;;;;;6157671;23;20017;-89
2023/07/24 07:57:39;;;;;;;14.88;7.05;;;;;;;;;;6157774;23;20021;-90
2023/07/24 08:00:06;;;;;;;17.73;7.97;;;18.70;93.00;;;;;;6158057;23;20096;-90
2023/07/24 08:02:33;;;;;;;14.52;6.55;;;;;;;;;;6133013;23;20052;-90
2023/07/24 08:04:59;;;;;;;15.02;8.80;;;;;;;;;;6182402;23;20472;-87
2023/07/24 08:07:25;;;;;;;15.07;8.23;;;;;;;;;;6157675;23;20332;-91
2023/07/24 08:09:51;;;;;;;14.05;7.50;;;;;;;;;;6133379;23;20071;-90
2023/07/24 08:12:17;;;;;;;16.05;7.45;;;;;;;;;;6159060;23;20017;-88
2023/07/24 08:14:43;;;;;;;11.05;7.20;;;;;;;;;;6159381;23;20048;-89
2023/07/24 08:17:09;;;;;;;16.80;6.88;;;;;;;;;;6159386;23;20367;-90
2023/07/24 08:19:36;;;;;;;10.43;6.60;;;;;;;;;;6179063;23;20021;-91
2023/07/24 08:22:01;;;;;;;20.88;7.25;;;19.00;91.90;;;;;;6203587;23;20024;-93
2023/07/24 08:24:27;;;;;;;16.85;7.13;;;;;;;;;;6154204;23;20020;-88
2023/07/24 08:26:53;;;;;;;12.45;7.38;;;19.00;91.30;;;;;;6202283;23;20024;-90
2023/07/24 08:29:19;;;;;;;12.98;6.85;;;;;;;;;;6177855;23;20021;-90
2023/07/24 08:31:45;;;;;;;12.40;6.22;;;;;;;;;;6201203;23;20488;-92
2023/07/24 08:34:11;;;;;;;16.70;7.95;;;;;;;;;;6174782;23;20343;-90
2023/07/24 08:36:37;;;;;;;12.32;8.15;;;;;;;;;;6146705;23;20059;-85
2023/07/24 08:39:03;;;;;;;13.82;6.65;;;19.30;90.00;;;;;;6146152;23;20457;-88
2023/07/24 08:41:29;;;;;;;13.50;7.32;;;19.50;89.30;;;;;;6135021;23;20101;-91
2023/07/24 08:43:55;;;;;;;11.60;6.88;;;;;;;;;;6134635;23;20076;-85
2023/07/24 08:46:22;;;;;;;14.20;7.32;;;;;;;;;;6159779;23;20045;-86
2023/07/24 08:48:48;;;;;;;16.27;7.93;;;;;;;;;;6184544;23;20096;-89
2023/07/24 08:51:18;;;;;;;11.82;7.68;;;19.50;84.90;;;;;;6183674;23;20017;-90
2023/07/24 08:53:44;;;;;;;11.70;6.95;;;;;;;;;;6184191;23;20028;-89
2023/07/24 08:56:12;;;;;;;24.45;7.13;;;19.60;82.40;;;;;;6159076;23;20350;-90
2023/07/24 08:58:39;;;;;;;11.80;6.60;;;19.80;84.90;;;;;;6183991;23;20025;-90
2023/07/24 09:01:05;;;;;;;13.70;7.07;;;19.50;85.40;;;;;;6181454;23;20091;-93
2023/07/24 09:03:35;;;;;;;19.00;7.50;;;19.70;82.60;;;;;;6158438;23;20021;-90
2023/07/24 09:06:03;;;;;;;15.18;7.65;;;19.60;80.70;;;;;;6134392;23;20328;-92
2023/07/24 09:08:35;;;;;;;12.60;7.50;;;19.60;83.90;;;;;;6159272;23;20012;-91
2023/07/24 09:11:01;;;;;;;16.30;7.57;;;19.70;82.80;;;;;;6183623;23;20021;-85
2023/07/24 09:13:28;;;;;;;9.27;6.30;;;19.90;82.00;;;;;;6183409;23;20009;-86
2023/07/24 09:15:54;;;;;;;12.30;7.13;;;;;;;;;;6156242;23;20046;-86
2023/07/24 09:18:21;;;;;;;10.57;6.47;;;19.80;80.20;;;;;;6182984;23;20108;-86
2023/07/24 09:20:47;;;;;;;9.30;6.03;;;19.90;80.60;;;;;;6133695;23;20454;-86
2023/07/24 09:23:14;;;;;;;14.07;6.47;;;19.90;77.70;;;;;;6158430;23;20080;-85
2023/07/24 09:25:42;;;;;;;12.60;6.28;;;20.00;79.40;;;;;;6158665;23;20358;-85
2023/07/24 09:28:15;;;;;;;10.57;6.32;;;20.30;78.70;;;;;;6133891;23;20017;-85
2023/07/24 09:30:50;;;;;;;10.85;5.78;;;20.40;73.40;;;;;;6183189;23;20021;-86
2023/07/24 09:33:16;;;;;;;13.68;5.90;;;;;;;;;;6158578;23;20386;-86
2023/07/24 09:35:42;;;;;;;11.13;5.30;;;20.60;72.40;;;;;;6182713;23;20017;-85
2023/07/24 09:38:10;;;;;;;12.73;6.20;;;20.40;69.60;;;;;;6181236;23;20171;-84
2023/07/24 09:40:40;;;;;;;13.07;5.28;;;20.70;67.20;;;;;;6157084;23;20013;-85
2023/07/24 09:43:19;;;;;;;15.25;7.28;;;20.80;67.60;;;;;;6157741;23;20350;-84
2023/07/24 09:45:46;;;;;;;6.22;5.03;;;20.70;66.00;;;;;;6156883;23;20084;-83
2023/07/24 09:48:14;;;;;;;9.75;6.13;;;20.90;65.10;;;;;;6158016;23;20017;-85
2023/07/24 09:50:46;;;;;;;8.65;6.38;;;20.90;65.60;;;;;;6182101;23;20021;-82
2023/07/24 09:53:43;;;;;;;8.32;5.47;;;21.00;66.90;;;;;;6182063;23;20016;-85
2023/07/24 09:56:10;;;;;;;5.15;4.65;;;21.00;63.70;;;;;;6157202;23;20013;-83
2023/07/24 09:58:37;;;;;;;10.55;5.85;;;21.40;63.80;;;;;;6157599;23;20025;-86
2023/07/24 10:01:06;;;;;;;10.05;5.75;;;21.20;59.60;;;;;;6133222;23;20103;-85
2023/07/24 10:03:38;;;;;;;9.07;5.40;;;21.20;61.90;;;;;;6158351;23;20350;-83
2023/07/24 10:06:04;;;;;;;9.00;5.28;;;21.50;56.10;;;;;;6182603;23;20016;-83
2023/07/24 10:08:31;;;;;;;7.30;4.45;;;21.20;59.10;;;;;;6183274;23;20068;-83
2023/07/24 10:10:59;;;;;;;9.13;4.53;;;21.30;57.80;;;;;;6134026;23;20091;-82
2023/07/24 10:13:26;;;;;;;12.05;4.75;;;21.00;58.60;;;;;;6134033;23;20009;-83
2023/07/24 10:15:53;;;;;;;9.30;4.72;;;;;;;;;;6183256;23;20021;-84
2023/07/24 10:18:29;;;;;;;5.70;4.40;;;20.90;62.90;;;;;;6158281;23;20458;-83
2023/07/24 10:21:06;;;;;;;4.43;3.88;;;20.60;68.00;;;;;;6157959;23;20017;-83
2023/07/24 10:23:48;;;;;;;5.38;3.25;;;20.40;66.60;;;;;;6158156;23;20021;-84
2023/07/24 10:26:15;;;;;;;4.10;3.10;;;;;;;;;;6158874;23;20028;-83
2023/07/24 10:28:42;;;;;;;4.03;3.50;;;;;;;;;;6183397;23;20088;-85
2023/07/24 10:31:26;;;;;;;6.15;4.35;;;20.50;64.80;;;;;;6183340;23;20043;-83
2023/07/24 10:33:52;;;;;;;4.10;3.67;;;;;;;;;;6158471;23;20342;-83
2023/07/24 10:36:20;;;;;;;8.90;5.18;;;20.30;71.00;;;;;;6158108;23;20072;-84
2023/07/24 10:38:51;;;;;;;10.25;4.82;;;20.30;73.70;;;;;;6182192;23;20017;-82
2023/07/24 10:41:17;;;;;;;8.85;5.03;;;;;;;;;;6157788;23;20017;-84
2023/07/24 10:43:46;;;;;;;10.40;5.25;;;19.90;76.90;;;;;;6158162;23;20086;-87
2023/07/24 10:46:13;;;;;;;6.22;4.70;;;19.80;82.10;;;;;;6158489;23;20040;-88
2023/07/24 10:48:42;;;;;;;9.50;5.40;;;19.70;82.30;;;;;;6158268;23;20017;-86
2023/07/24 10:51:09;;;;;;;8.15;5.10;;;19.60;82.50;;;;;;6157900;23;20017;-84
2023/07/24 10:53:37;;;;;;;7.43;5.50;;;19.70;84.10;;;;;;6158138;23;20043;-83
2023/07/24 10:56:08;;;;;;;11.52;6.97;;;19.60;87.80;;;;;;6182887;23;20079;-86
2023/07/24 10:58:35;;;;;;;9.23;7.15;;;;;;;;;;6158267;23;20056;-85
2023/07/24 11:01:04;;;;;;;12.07;7.57;;;19.50;88.20;;;;;;6158433;23;20013;-85
2023/07/24 11:03:31;;;;;;;7.88;6.05;;;19.50;91.00;;;;;;6182720;23;20021;-83
2023/07/24 11:05:58;;;;;;;6.05;5.50;;;19.20;90.50;;;;;;6158188;23;20351;-82
2023/07/24 11:08:24;;;;;;;12.52;6.25;;;;;;;;;;6133187;23;20374;-82
2023/07/24 11:10:52;;;;;;;10.30;6.70;;;19.40;92.90;;;;;;6157438;23;20017;-84
2023/07/24 11:13:26;;;;;;;9.50;6.53;;;19.60;91.90;;;;;;6158014;23;20013;-84
2023/07/24 11:15:53;;;;;;;14.73;7.28;;;19.70;94.40;;;;;;6158596;23;20021;-83
2023/07/24 11:18:24;;;;;;;11.07;6.85;;;;;;;;;;6158243;23;20450;-84
2023/07/24 11:20:52;;;;;;;8.98;6.50;;;20.00;91.20;;;;;;6157593;23;20017;-83
2023/07/24 11:23:18;;;;;;;8.68;6.50;;;;;;;;;;6158246;23;20025;-84
2023/07/24 11:25:45;;;;;;;9.55;5.93;;;19.60;90.30;;;;;;6158336;23;20497;-84
2023/07/24 11:28:12;;;;;;;11.05;6.95;;;20.00;85.40;;;;;;6134131;23;20021;-88
2023/07/24 11:30:38;;;;;;;7.90;5.90;;;20.00;89.00;;;;;;6159005;23;20438;-87
2023/07/24 11:33:11;;;;;;;10.80;5.75;;;20.00;85.60;;;;;;6183153;23;20024;-89
2023/07/24 11:35:40;;;;;;;11.18;6.03;;;;;;;;;;6158323;23;20028;-86
2023/07/24 11:38:09;;;;;;;8.00;6.00;;;20.00;84.40;;;;;;6183277;23;20350;-88
2023/07/24 11:40:40;;;;;;;9.38;5.10;;;20.10;83.30;;;;;;6158271;23;20096;-88
2023/07/24 11:43:19;;;;;;;11.27;5.35;;;20.00;81.30;;;;;;6158360;23;20029;-87
2023/07/24 11:45:48;;;;;;;6.15;4.70;;;20.10;80.40;;;;;;6158589;23;20036;-87
2023/07/24 11:48:14;;;;;;;7.57;5.90;;;;;;;;;;6185384;23;20009;-89
2023/07/24 11:50:46;;;;;;;9.52;5.72;;;20.00;81.40;;;;;;6135738;23;20021;-87
2023/07/24 11:53:25;;;;;;;5.78;5.18;;;20.00;75.10;;;;;;6185226;23;20017;-89
2023/07/24 11:55:53;;;;;;;7.82;5.15;;;20.00;77.90;;;;;;6161218;23;20285;-86
2023/07/24 11:58:20;;;;;;;7.53;5.95;;;19.80;80.80;;;;;;6136107;23;20032;-88
2023/07/24 12:00:52;;;;;;;8.70;6.43;;;;;;;;;;6162243;23;20084;-89
2023/07/24 12:03:24;;;;;;;6.05;5.40;;;19.80;77.10;;;;;;6184936;23;20055;-88
2023/07/24 12:05:50;;;;;;;10.02;6.15;;;;;;;;;;6160144;23;20020;-87
2023/07/24 12:08:29;;;;;;;8.02;5.43;;;19.80;77.50;;;;;;6184506;23;20100;-89
2023/07/24 12:10:55;;;;;;;7.15;5.47;;;19.70;81.40;;;;;;6159996;23;20021;-88
2023/07/24 12:13:20;;;;;;;6.93;5.82;;;19.70;81.70;;;;;;6159386;23;20023;-88
2023/07/24 12:15:47;;;;;;;5.13;4.68;;;;;;;;;;6160077;23;20013;-87
2023/07/24 12:18:13;;;;;;;7.32;5.90;;;;;;;;;;6185014;23;20017;-86
2023/07/24 12:20:40;;;;;;;6.93;5.63;;;;;;;;;;6159748;23;20020;-88
2023/07/24 12:23:06;;;;;;;6.75;5.72;;;;;;;;;;6186662;23;20021;-88
2023/07/24 12:25:32;;;;;;;6.03;5.00;;;19.70;75.50;;;;;;6185302;23;20019;-86
2023/07/24 12:27:59;;;;;;;5.15;4.65;;;;;;;;;;6133958;23;20025;-88
2023/07/24 12:30:25;;;;;;;6.22;5.03;;;;;;;;;;6184899;23;20531;-85
2023/07/24 12:32:51;;;;;;;5.50;4.60;;;;;;;;;;6134355;23;20017;-87
2023/07/24 12:35:18;;;;;;;6.97;4.88;;;;;;;;;;6159391;23;20465;-85
2023/07/24 12:37:45;;;;;;;4.80;4.30;;;19.40;73.20;;;;;;6158768;23;20013;-86
2023/07/24 12:40:11;;;;;;;5.90;4.65;;;19.60;76.40;;;;;;6159574;23;20462;-84
2023/07/24 12:42:37;;;;;;;5.22;4.07;;;;;;;;;;6184419;23;20021;-83
2023/07/24 12:45:04;;;;;;;7.18;4.25;;;21.20;74.20;;;;;;6159701;23;20021;-85
2023/07/24 12:47:31;;;;;;;4.65;4.18;;;19.60;72.10;;;;;;6184497;23;20454;-83
2023/07/24 12:49:58;;;;;;;4.20;3.78;;;;;;;;;;6184200;23;20036;-89
2023/07/24 12:52:25;;;;;;;3.90;3.33;;;19.50;76.20;;;;;;6184313;23;20025;-86
2023/07/24 12:54:51;;;;;;;3.75;3.20;;;;;;;;;;6185707;23;20017;-85
2023/07/24 12:57:18;;;;;;;3.60;3.08;;;;;;;;;;6184496;23;20029;-86
2023/07/24 12:59:44;;;;;;;5.65;3.33;;;;;;;;;;6159683;23;20024;-85
2023/07/24 13:02:10;;;;;;;5.55;3.28;;;;;;;;;;6184495;23;20024;-85
2023/07/24 13:04:36;;;;;;;3.00;2.20;;;;;;;;;;6186258;23;20024;-86
2023/07/24 13:07:04;;;;;;;2.38;1.55;;;;;;;;;;6135328;23;20041;-86
2023/07/24 13:09:30;;;;;;;5.28;1.95;;;;;;;;;;6184413;23;20021;-86
2023/07/24 13:11:57;;;;;;;5.03;2.25;;;;;;;;;;6183044;23;20024;-85
2023/07/24 13:14:23;;;;;;;2.60;1.42;;;;;;;;;;6183869;23;20017;-86
2023/07/24 13:16:50;;;;;;;2.78;1.77;;;19.50;72.90;;;;;;6134732;23;20457;-88
2023/07/24 13:19:16;;;;;;;4.75;1.17;;;;;;;;;;6134871;23;20537;-84
2023/07/24 13:21:43;;;;;;;2.97;1.65;;;;;;;;;;6184011;23;20013;-88
2023/07/24 13:24:10;;;;;;;6.72;2.38;;;19.70;71.60;;;;;;6160111;23;20021;-87
2023/07/24 13:26:36;;;;;;;5.85;2.05;;;;;;;;;;6160273;23;20028;-89
2023/07/24 13:29:03;;;;;;;7.40;2.65;;;19.70;68.70;;;;;;6160235;23;20017;-90
2023/07/24 13:31:29;;;;;;;5.05;2.72;;;;;;;;;;6160092;23;20013;-88
2023/07/24 13:33:55;;;;;;;4.60;2.30;;;;;;;;;;6184879;23;20107;-87
2023/07/24 13:36:21;;;;;;;5.75;2.50;;;;;;;;;;6159540;23;20013;-87
2023/07/24 13:38:50;;;;;;;5.13;1.88;;;19.80;69.00;;;;;;6159497;23;20067;-89
2023/07/24 13:41:16;;;;;;;3.45;2.30;;;;;;;;;;6135346;23;20020;-90
2023/07/24 13:43:43;;;;;;;4.75;2.22;;;19.50;62.60;;;;;;6159128;23;20079;-89
2023/07/24 13:46:10;;;;;;;4.22;2.45;;;19.30;68.70;;;;;;6134943;23;20063;-90
2023/07/24 13:48:36;;;;;;;4.63;2.13;;;;;;;;;;6134287;23;20159;-90